createdAt,value
2022-12-18T00:01:24.999Z,10.38
2022-12-18T00:03:53.545Z,9.48
2022-12-18T00:06:23.337Z,10.50
2022-12-18T00:08:50.394Z,13.15
2022-12-18T00:11:22.806Z,11.47
2022-12-18T00:13:50.882Z,10.57
2022-12-18T00:16:21.445Z,10.20
2022-12-18T00:18:50.094Z,11.23
2022-12-18T00:21:17.569Z,11.55
2022-12-18T00:23:45.384Z,11.03
2022-12-18T00:26:15.949Z,11.35
2022-12-18T00:28:43.634Z,11.35
2022-12-18T00:31:13.433Z,11.45
2022-12-18T00:33:40.909Z,11.00
2022-12-18T00:36:11.788Z,11.13
2022-12-18T00:38:39.166Z,9.32
2022-12-18T00:41:08.996Z,9.63
2022-12-18T00:43:37.395Z,13.68
2022-12-18T00:46:04.977Z,11.15
2022-12-18T00:48:33.106Z,10.13
2022-12-18T00:51:00.186Z,8.48
2022-12-18T00:53:27.235Z,10.23
2022-12-18T00:55:54.403Z,8.65
2022-12-18T00:58:21.441Z,9.38
2022-12-18T01:00:48.551Z,11.30
2022-12-18T01:03:15.854Z,10.75
2022-12-18T01:05:43.474Z,10.38
2022-12-18T01:08:10.706Z,11.00
2022-12-18T01:10:41.869Z,9.60
2022-12-18T01:13:09.197Z,11.53
2022-12-18T01:15:36.405Z,9.43
2022-12-18T01:18:06.931Z,11.05
2022-12-18T01:20:34.178Z,9.10
2022-12-18T01:23:01.202Z,8.23
2022-12-18T01:25:28.397Z,9.23
2022-12-18T01:27:55.509Z,9.82
2022-12-18T01:30:22.700Z,8.88
2022-12-18T01:32:49.854Z,7.70
2022-12-18T01:35:17.153Z,8.00
2022-12-18T01:37:44.331Z,8.87
2022-12-18T01:40:11.772Z,8.05
2022-12-18T01:42:39.109Z,8.35
2022-12-18T01:45:12.330Z,10.23
2022-12-18T01:47:45.869Z,8.50
2022-12-18T01:50:23.627Z,10.50
2022-12-18T01:52:57.432Z,9.88
2022-12-18T01:55:26.602Z,10.52
2022-12-18T01:57:55.323Z,9.38
2022-12-18T02:00:23.764Z,9.20
2022-12-18T02:02:51.068Z,10.37
2022-12-18T02:05:30.362Z,8.73
2022-12-18T02:08:03.587Z,8.13
2022-12-18T02:10:35.654Z,7.85
2022-12-18T02:13:27.691Z,8.85
2022-12-18T02:16:06.547Z,7.77
2022-12-18T02:18:37.727Z,7.72
2022-12-18T02:21:17.329Z,7.90
2022-12-18T02:23:57.951Z,7.57
2022-12-18T02:26:51.030Z,7.22
2022-12-18T02:29:22.793Z,7.27
2022-12-18T02:31:58.610Z,7.75
2022-12-18T02:34:29.225Z,6.78
2022-12-18T02:36:57.604Z,7.50
2022-12-18T02:39:26.297Z,5.70
2022-12-18T02:41:53.621Z,6.67
2022-12-18T02:44:20.947Z,6.43
2022-12-18T02:46:51.634Z,7.32
2022-12-18T02:49:37.936Z,6.95
2022-12-18T02:52:34.744Z,7.22
2022-12-18T02:55:19.881Z,5.33
2022-12-18T02:57:55.192Z,5.13
2022-12-18T03:00:44.095Z,7.13
2022-12-18T03:03:17.557Z,5.80
2022-12-18T03:05:59.191Z,6.25
2022-12-18T03:08:30.385Z,6.43
2022-12-18T03:11:07.769Z,5.05
2022-12-18T03:13:38.547Z,5.28
2022-12-18T03:16:07.775Z,6.32
2022-12-18T03:18:48.960Z,6.07
2022-12-18T03:21:18.545Z,5.27
2022-12-18T03:23:49.068Z,5.78
2022-12-18T03:26:20.519Z,5.13
2022-12-18T03:28:52.567Z,5.47
2022-12-18T03:31:21.708Z,4.65
2022-12-18T03:33:55.002Z,4.73
2022-12-18T03:36:23.681Z,5.10
2022-12-18T03:38:51.348Z,5.97
2022-12-18T03:41:24.538Z,5.45
2022-12-18T03:44:14.675Z,4.38
2022-12-18T03:47:03.002Z,5.80
2022-12-18T03:49:36.668Z,4.43
2022-12-18T03:52:07.278Z,5.35
2022-12-18T03:54:34.866Z,5.68
2022-12-18T03:57:09.877Z,4.00
2022-12-18T03:59:38.690Z,4.30
2022-12-18T04:02:07.755Z,4.88
2022-12-18T04:04:36.947Z,4.90
2022-12-18T04:07:04.397Z,5.82
2022-12-18T04:09:33.189Z,5.00
2022-12-18T04:12:00.263Z,5.23
2022-12-18T04:14:27.470Z,4.88
2022-12-18T04:16:54.930Z,4.55
2022-12-18T04:19:21.964Z,4.72
2022-12-18T04:21:49.068Z,5.05
2022-12-18T04:24:16.227Z,5.37
2022-12-18T04:26:43.251Z,5.28
2022-12-18T04:29:10.304Z,4.60
2022-12-18T04:31:37.388Z,4.18
2022-12-18T04:34:04.669Z,4.95
2022-12-18T04:36:31.787Z,5.00
2022-12-18T04:38:58.845Z,5.18
2022-12-18T04:41:25.924Z,4.78
2022-12-18T04:43:53.096Z,4.65
2022-12-18T04:46:20.175Z,5.45
2022-12-18T04:48:47.909Z,4.57
2022-12-18T04:51:15.520Z,5.30
2022-12-18T04:53:43.052Z,5.05
2022-12-18T04:56:15.349Z,3.78
2022-12-18T04:58:44.654Z,4.15
2022-12-18T05:01:13.373Z,3.97
2022-12-18T05:03:41.150Z,4.45
2022-12-18T05:06:08.489Z,5.25
2022-12-18T05:08:35.640Z,3.80
2022-12-18T05:11:05.329Z,4.70
2022-12-18T05:13:33.227Z,4.00
2022-12-18T05:16:01.102Z,4.72
2022-12-18T05:18:28.432Z,4.47
2022-12-18T05:20:55.738Z,4.40
2022-12-18T05:23:23.902Z,4.53
2022-12-18T05:25:59.770Z,3.83
2022-12-18T05:28:27.937Z,4.25
2022-12-18T05:30:57.741Z,3.90
2022-12-18T05:33:26.523Z,3.95
2022-12-18T05:35:55.469Z,4.45
2022-12-18T05:38:23.891Z,4.53
2022-12-18T05:40:51.874Z,4.15
2022-12-18T05:43:21.517Z,3.33
2022-12-18T05:45:49.134Z,4.20
2022-12-18T05:48:16.895Z,4.20
2022-12-18T05:50:46.448Z,3.07
2022-12-18T05:53:15.279Z,4.22
2022-12-18T05:55:42.910Z,3.80
2022-12-18T05:58:11.307Z,3.88
2022-12-18T06:00:40.868Z,2.92
2022-12-18T06:03:09.659Z,2.77
2022-12-18T06:05:41.956Z,2.55
2022-12-18T06:08:09.503Z,3.13
2022-12-18T06:10:37.373Z,3.42
2022-12-18T06:13:05.599Z,3.13
2022-12-18T06:15:33.058Z,2.53
2022-12-18T06:18:01.820Z,3.88
2022-12-18T06:20:33.205Z,3.72
2022-12-18T06:23:01.020Z,2.90
2022-12-18T06:25:28.208Z,2.90
2022-12-18T06:27:55.296Z,3.67
2022-12-18T06:30:22.330Z,3.30
2022-12-18T06:32:54.661Z,3.70
2022-12-18T06:35:23.917Z,3.42
2022-12-18T06:37:51.047Z,2.90
2022-12-18T06:40:18.318Z,3.23
2022-12-18T06:42:45.382Z,2.40
2022-12-18T06:45:12.518Z,2.45
2022-12-18T06:47:39.566Z,2.72
2022-12-18T06:50:07.229Z,2.80
2022-12-18T06:52:34.856Z,3.90
2022-12-18T06:55:02.012Z,2.35
2022-12-18T06:57:29.369Z,2.20
2022-12-18T06:59:56.514Z,3.00
2022-12-18T07:02:23.652Z,2.88
2022-12-18T07:04:50.808Z,2.53
2022-12-18T07:07:18.037Z,3.22
2022-12-18T07:09:45.118Z,3.03
2022-12-18T07:12:12.247Z,2.50
2022-12-18T07:14:39.313Z,2.58
2022-12-18T07:17:06.586Z,2.00
2022-12-18T07:19:34.515Z,2.25
2022-12-18T07:22:02.074Z,3.05
2022-12-18T07:24:30.019Z,2.15
2022-12-18T07:26:57.048Z,2.92
2022-12-18T07:29:24.135Z,2.67
2022-12-18T07:31:51.224Z,2.20
2022-12-18T07:34:18.403Z,2.13
2022-12-18T07:36:45.473Z,2.72
2022-12-18T07:39:13.075Z,3.13
2022-12-18T07:41:46.681Z,2.53
2022-12-18T07:44:14.135Z,2.60
2022-12-18T07:46:41.307Z,2.38
2022-12-18T07:49:08.385Z,2.20
2022-12-18T07:51:35.531Z,2.35
2022-12-18T07:54:02.600Z,3.20
2022-12-18T07:56:31.152Z,2.10
2022-12-18T07:59:00.073Z,2.30
2022-12-18T08:01:27.874Z,2.08
2022-12-18T08:03:55.125Z,2.60
2022-12-18T08:06:23.339Z,2.93
2022-12-18T08:08:55.687Z,2.80
2022-12-18T08:11:24.587Z,3.13
2022-12-18T08:13:51.702Z,3.35
2022-12-18T08:16:19.877Z,3.45
2022-12-18T08:18:47.837Z,3.23
2022-12-18T08:21:16.195Z,2.72
2022-12-18T08:23:43.920Z,2.63
2022-12-18T08:26:12.277Z,3.10
2022-12-18T08:28:39.952Z,2.17
2022-12-18T08:31:08.105Z,3.53
2022-12-18T08:33:36.107Z,3.20
2022-12-18T08:36:06.414Z,3.15
2022-12-18T08:38:34.474Z,3.10
2022-12-18T08:41:02.704Z,3.10
2022-12-18T08:43:48.764Z,3.10
2022-12-18T08:46:16.021Z,2.88
2022-12-18T08:48:43.291Z,3.50
2022-12-18T08:51:13.271Z,3.22
2022-12-18T08:53:40.690Z,3.33
2022-12-18T08:56:08.723Z,3.13
2022-12-18T08:58:35.782Z,3.70
2022-12-18T09:01:04.476Z,3.05
2022-12-18T09:03:32.711Z,3.55
2022-12-18T09:06:00.487Z,3.50
2022-12-18T09:08:28.247Z,3.67
2022-12-18T09:10:56.137Z,3.63
2022-12-18T09:13:23.891Z,3.33
2022-12-18T09:15:53.458Z,3.97
2022-12-18T09:18:21.962Z,3.47
2022-12-18T09:20:51.102Z,3.30
2022-12-18T09:23:18.404Z,2.50
2022-12-18T09:25:45.662Z,3.00
2022-12-18T09:28:18.607Z,2.88
2022-12-18T09:30:50.187Z,4.25
2022-12-18T09:33:18.149Z,2.77
2022-12-18T09:35:46.785Z,3.10
2022-12-18T09:38:16.414Z,4.05
2022-12-18T09:40:49.617Z,4.05
2022-12-18T09:43:25.732Z,3.40
2022-12-18T09:45:55.879Z,3.47
2022-12-18T09:48:26.812Z,3.40
2022-12-18T09:50:57.737Z,3.80
2022-12-18T09:53:27.860Z,3.58
2022-12-18T09:55:55.793Z,3.83
2022-12-18T09:58:40.689Z,3.77
2022-12-18T10:01:13.437Z,4.22
2022-12-18T10:03:40.867Z,4.65
2022-12-18T10:06:10.050Z,4.65
2022-12-18T10:08:43.029Z,5.25
2022-12-18T10:11:28.736Z,3.83
2022-12-18T10:14:13.020Z,3.40
2022-12-18T10:17:00.894Z,4.75
2022-12-18T10:19:57.703Z,4.07
2022-12-18T10:22:33.036Z,3.65
2022-12-18T10:25:11.111Z,2.77
2022-12-18T10:27:38.339Z,2.58
2022-12-18T10:30:21.853Z,2.22
2022-12-18T10:32:48.953Z,3.70
2022-12-18T10:35:22.720Z,3.10
2022-12-18T10:38:12.668Z,3.23
2022-12-18T10:40:50.617Z,3.53
2022-12-18T10:43:22.576Z,3.38
2022-12-18T10:46:08.609Z,3.70
2022-12-18T10:48:49.206Z,2.13
2022-12-18T10:51:31.579Z,3.10
2022-12-18T10:54:15.917Z,2.60
2022-12-18T10:56:43.736Z,3.50
2022-12-18T10:59:14.439Z,2.75
2022-12-18T11:01:58.778Z,2.83
2022-12-18T11:04:31.580Z,2.93
2022-12-18T11:07:07.886Z,2.13
2022-12-18T11:09:39.587Z,2.70
2022-12-18T11:12:18.377Z,3.03
2022-12-18T11:14:48.172Z,3.33
2022-12-18T11:17:26.287Z,2.83
2022-12-18T11:19:56.427Z,2.88
2022-12-18T11:22:23.724Z,3.38
2022-12-18T11:25:30.065Z,2.67
2022-12-18T11:28:24.212Z,3.42
2022-12-18T11:31:29.611Z,2.43
2022-12-18T11:34:28.678Z,3.15
2022-12-18T11:36:59.031Z,2.47
2022-12-18T11:39:39.650Z,1.60
2022-12-18T11:42:13.832Z,2.72
2022-12-18T11:44:52.966Z,2.40
2022-12-18T11:47:31.274Z,2.63
2022-12-18T11:50:01.964Z,2.13
2022-12-18T11:52:41.209Z,3.00
2022-12-18T11:55:17.196Z,2.42
2022-12-18T11:57:56.306Z,2.80
2022-12-18T12:00:23.937Z,2.25
2022-12-18T12:03:39.891Z,2.72
2022-12-18T12:06:30.753Z,2.05
2022-12-18T12:09:06.969Z,2.38
2022-12-18T12:11:52.437Z,2.00
2022-12-18T12:14:38.486Z,2.17
2022-12-18T12:17:08.508Z,2.95
2022-12-18T12:19:49.476Z,1.10
2022-12-18T12:22:25.596Z,0.55
2022-12-18T12:25:28.006Z,2.27
2022-12-18T12:28:51.102Z,1.73
2022-12-18T12:31:20.634Z,1.88
2022-12-18T12:34:02.335Z,1.63
2022-12-18T12:36:48.090Z,2.45
2022-12-18T12:39:18.866Z,2.13
2022-12-18T12:42:06.083Z,2.63
2022-12-18T12:44:41.921Z,2.15
2022-12-18T12:47:22.939Z,1.00
2022-12-18T12:49:50.928Z,2.10
2022-12-18T12:52:25.351Z,2.40
2022-12-18T12:54:52.738Z,2.25
2022-12-18T12:57:24.432Z,2.38
2022-12-18T13:00:01.037Z,2.83
2022-12-18T13:02:52.315Z,2.92
2022-12-18T13:05:38.814Z,2.23
2022-12-18T13:08:11.234Z,3.03
2022-12-18T13:10:40.542Z,2.88
2022-12-18T13:13:10.984Z,2.38
2022-12-18T13:15:46.097Z,2.60
2022-12-18T13:18:18.957Z,2.60
2022-12-18T13:20:56.342Z,1.60
2022-12-18T13:23:29.898Z,2.10
2022-12-18T13:29:07.892Z,1.27
2022-12-18T13:32:01.453Z,1.33
2022-12-18T13:34:31.885Z,2.17
2022-12-18T13:37:39.435Z,2.20
2022-12-18T13:40:45.064Z,2.00
2022-12-18T13:43:22.215Z,2.30
2022-12-18T13:46:51.000Z,2.47
2022-12-18T13:49:27.161Z,2.05
2022-12-18T13:51:55.888Z,2.35
2022-12-18T13:54:36.730Z,2.45
2022-12-18T13:57:07.328Z,3.40
2022-12-18T13:59:41.138Z,2.33
2022-12-18T14:02:18.084Z,1.30
2022-12-18T14:04:47.361Z,2.28
2022-12-18T14:07:19.826Z,2.15
2022-12-18T14:09:50.511Z,1.90
2022-12-18T14:12:39.644Z,2.23
2022-12-18T14:15:18.752Z,2.47
2022-12-18T14:17:45.900Z,1.67
2022-12-18T14:20:16.645Z,1.33
2022-12-18T14:22:47.874Z,2.30
2022-12-18T14:25:19.116Z,2.47
2022-12-18T14:27:51.673Z,2.15
2022-12-18T14:30:24.618Z,1.38
2022-12-18T14:33:27.734Z,1.48
2022-12-18T14:36:01.823Z,0.88
2022-12-18T14:38:34.323Z,2.80
2022-12-18T14:41:02.212Z,1.85
2022-12-18T14:43:32.751Z,1.33
2022-12-18T14:46:00.282Z,2.47
2022-12-18T14:48:40.642Z,2.80
2022-12-18T14:51:15.696Z,2.17
2022-12-18T14:53:53.998Z,1.92
2022-12-18T14:56:24.773Z,2.28
2022-12-18T14:58:55.184Z,2.38
2022-12-18T15:01:34.783Z,1.40
2022-12-18T15:04:02.995Z,1.80
2022-12-18T15:06:40.987Z,2.10
2022-12-18T15:09:25.567Z,2.28
2022-12-18T15:12:00.668Z,2.10
2022-12-18T15:14:41.698Z,2.30
2022-12-18T15:17:23.324Z,2.60
2022-12-18T15:19:53.983Z,1.65
2022-12-18T15:22:28.161Z,2.17
2022-12-18T15:24:56.728Z,2.53
2022-12-18T15:27:36.591Z,2.15
2022-12-18T15:30:09.766Z,2.50
2022-12-18T15:32:41.012Z,2.63
2022-12-18T15:35:18.599Z,3.58
2022-12-18T15:37:45.952Z,2.03
2022-12-18T15:40:17.895Z,2.15
2022-12-18T15:43:04.054Z,3.43
2022-12-18T15:45:31.495Z,2.67
2022-12-18T15:47:58.602Z,2.80
2022-12-18T15:50:25.857Z,3.25
2022-12-18T15:52:55.869Z,3.53
2022-12-18T15:55:43.212Z,2.97
2022-12-18T15:58:11.165Z,2.95
2022-12-18T16:00:40.545Z,2.42
2022-12-18T16:03:07.835Z,2.50
2022-12-18T16:05:35.111Z,2.83
2022-12-18T16:08:02.159Z,3.93
2022-12-18T16:10:29.445Z,2.00
2022-12-18T16:12:56.593Z,3.45
2022-12-18T16:15:24.890Z,2.92
2022-12-18T16:17:52.836Z,3.95
2022-12-18T16:20:21.888Z,3.40
2022-12-18T16:22:49.647Z,3.35
2022-12-18T16:25:23.718Z,4.43
2022-12-18T16:27:51.336Z,3.22
2022-12-18T16:30:21.722Z,3.33
2022-12-18T16:32:49.132Z,3.03
2022-12-18T16:35:17.336Z,3.30
2022-12-18T16:37:44.885Z,3.35
2022-12-18T16:40:14.296Z,3.85
2022-12-18T16:42:42.467Z,3.47
2022-12-18T16:45:11.886Z,3.37
2022-12-18T16:47:39.878Z,3.28
2022-12-18T16:50:08.222Z,3.50
2022-12-18T16:52:36.021Z,2.60
2022-12-18T16:55:03.743Z,5.18
2022-12-18T16:57:30.828Z,9.97
2022-12-18T17:00:04.436Z,7.70
2022-12-18T17:02:32.700Z,4.13
2022-12-18T17:04:59.999Z,2.67
2022-12-18T17:07:28.204Z,3.58
2022-12-18T17:09:55.632Z,3.23
2022-12-18T17:12:23.051Z,3.42
2022-12-18T17:14:50.242Z,2.65
2022-12-18T17:17:22.606Z,3.67
2022-12-18T17:19:51.495Z,4.03
2022-12-18T17:22:19.188Z,3.10
2022-12-18T17:24:47.106Z,3.53
2022-12-18T17:27:14.234Z,2.97
2022-12-18T17:29:47.384Z,3.08
2022-12-18T17:32:16.855Z,2.75
2022-12-18T17:34:43.971Z,2.80
2022-12-18T17:37:11.330Z,3.42
2022-12-18T17:39:38.478Z,3.75
2022-12-18T17:42:05.577Z,3.53
2022-12-18T17:44:34.351Z,3.35
2022-12-18T17:47:01.791Z,3.70
2022-12-18T17:49:29.115Z,3.58
2022-12-18T17:51:56.126Z,3.58
2022-12-18T17:54:23.219Z,2.40
2022-12-18T17:56:50.427Z,3.17
2022-12-18T17:59:17.539Z,2.73
2022-12-18T18:01:45.587Z,3.90
2022-12-18T18:04:13.464Z,3.17
2022-12-18T18:06:41.282Z,3.20
2022-12-18T18:09:16.332Z,4.10
2022-12-18T18:12:06.206Z,3.30
2022-12-18T18:14:33.583Z,3.22
2022-12-18T18:17:04.923Z,3.28
2022-12-18T18:19:32.957Z,3.55
2022-12-18T18:22:01.378Z,3.47
2022-12-18T18:24:29.172Z,3.03
2022-12-18T18:26:56.491Z,3.10
2022-12-18T18:29:26.970Z,2.85
2022-12-18T18:31:55.167Z,2.72
2022-12-18T18:34:24.549Z,2.92
2022-12-18T18:36:52.259Z,4.37
2022-12-18T18:39:19.906Z,3.33
2022-12-18T18:41:48.370Z,3.95
2022-12-18T18:44:20.673Z,3.00
2022-12-18T18:46:54.070Z,3.60
2022-12-18T18:49:21.282Z,2.30
2022-12-18T18:51:50.394Z,2.47
2022-12-18T18:54:17.463Z,2.88
2022-12-18T18:57:18.933Z,2.65
2022-12-18T18:59:32.270Z,1.88
2022-12-18T19:02:00.651Z,1.80
2022-12-18T19:04:33.068Z,1.45
2022-12-18T19:07:00.357Z,2.63
2022-12-18T19:09:28.629Z,1.88
2022-12-18T19:12:14.752Z,1.77
2022-12-18T19:14:42.284Z,1.47
2022-12-18T19:17:09.629Z,1.67
2022-12-18T19:19:37.289Z,1.50
2022-12-18T19:22:04.469Z,1.40
2022-12-18T19:24:31.617Z,1.33
2022-12-18T19:26:58.638Z,1.20
2022-12-18T19:29:25.771Z,1.80
2022-12-18T19:31:52.959Z,1.25
2022-12-18T19:34:20.262Z,1.23
2022-12-18T19:36:47.435Z,1.17
2022-12-18T19:39:16.959Z,1.03
2022-12-18T19:41:44.711Z,0.85
2022-12-18T19:44:14.261Z,1.02
2022-12-18T19:46:42.921Z,1.23
2022-12-18T19:49:11.492Z,1.05
2022-12-18T19:51:45.335Z,1.40
2022-12-18T19:54:16.670Z,1.17
2022-12-18T19:56:45.789Z,1.30
2022-12-18T19:59:13.005Z,1.65
2022-12-18T20:01:40.481Z,1.67
2022-12-18T20:04:07.984Z,1.50
2022-12-18T20:06:46.092Z,1.48
2022-12-18T20:09:13.245Z,1.50
2022-12-18T20:11:41.980Z,1.10
2022-12-18T20:14:10.842Z,1.40
2022-12-18T20:16:38.288Z,0.93
2022-12-18T20:19:05.678Z,1.33
2022-12-18T20:21:32.854Z,1.65
2022-12-18T20:24:01.223Z,1.00
2022-12-18T20:26:28.547Z,1.25
2022-12-18T20:28:55.866Z,1.60
2022-12-18T20:31:23.697Z,0.90
2022-12-18T20:33:52.101Z,0.90
2022-12-18T20:36:25.946Z,1.40
2022-12-18T20:38:58.166Z,1.25
2022-12-18T20:41:37.602Z,1.53
2022-12-18T20:44:21.644Z,1.65
2022-12-18T20:46:53.168Z,1.77
2022-12-18T20:49:20.308Z,0.98
2022-12-18T20:51:50.286Z,1.42
2022-12-18T20:54:17.404Z,0.83
2022-12-18T20:56:44.461Z,1.13
2022-12-18T20:59:11.671Z,1.50
2022-12-18T21:01:40.097Z,1.67
2022-12-18T21:04:13.427Z,1.60
2022-12-18T21:06:42.015Z,1.10
2022-12-18T21:09:10.014Z,1.30
2022-12-18T21:11:55.681Z,1.05
2022-12-18T21:14:25.433Z,1.35
2022-12-18T21:16:53.819Z,1.17
2022-12-18T21:19:23.422Z,1.30
2022-12-18T21:21:51.785Z,1.50
2022-12-18T21:24:19.121Z,0.98
2022-12-18T21:26:47.757Z,1.00
2022-12-18T21:29:20.452Z,1.00
2022-12-18T21:31:48.370Z,1.40
2022-12-18T21:34:21.731Z,1.33
2022-12-18T21:36:49.517Z,1.52
2022-12-18T21:39:16.943Z,1.20
2022-12-18T21:42:03.607Z,1.00
2022-12-18T21:44:30.784Z,1.00
2022-12-18T21:47:12.316Z,0.85
2022-12-18T21:49:50.576Z,1.67
2022-12-18T21:52:17.650Z,0.85
2022-12-18T21:54:44.799Z,1.08
2022-12-18T21:57:13.874Z,1.20
2022-12-18T21:59:42.382Z,0.90
2022-12-18T22:02:15.238Z,1.23
2022-12-18T22:04:43.338Z,1.25
2022-12-18T22:07:11.279Z,0.85
2022-12-18T22:09:38.418Z,1.07
2022-12-18T22:12:05.929Z,0.93
2022-12-18T22:14:32.995Z,1.20
2022-12-18T22:17:00.122Z,0.40
2022-12-18T22:19:28.221Z,1.17
2022-12-18T22:21:55.464Z,1.00
2022-12-18T22:24:24.490Z,1.10
2022-12-18T22:26:54.834Z,0.80
2022-12-18T22:29:47.243Z,0.90
2022-12-18T22:32:17.008Z,0.80
2022-12-18T22:34:49.323Z,1.27
2022-12-18T22:37:16.379Z,1.20
2022-12-18T22:39:43.830Z,1.00
2022-12-18T22:42:11.434Z,1.38
2022-12-18T22:44:39.664Z,1.15
2022-12-18T22:47:07.468Z,0.80
2022-12-18T22:49:35.611Z,1.20
2022-12-18T22:52:04.400Z,1.15
2022-12-18T22:54:31.485Z,0.38
2022-12-18T22:56:58.643Z,1.20
2022-12-18T22:59:26.766Z,1.23
2022-12-18T23:01:56.265Z,1.20
2022-12-18T23:04:30.633Z,1.23
2022-12-18T23:07:05.362Z,1.75
2022-12-18T23:09:32.724Z,1.75
2022-12-18T23:12:00.275Z,1.03
2022-12-18T23:14:28.317Z,1.25
2022-12-18T23:16:55.494Z,1.17
2022-12-18T23:19:23.693Z,1.17
2022-12-18T23:21:51.507Z,1.30
2022-12-18T23:24:18.612Z,1.50
2022-12-18T23:26:45.683Z,0.82
2022-12-18T23:29:13.806Z,1.38
2022-12-18T23:31:40.889Z,0.40
2022-12-18T23:34:08.158Z,1.35
2022-12-18T23:36:45.694Z,0.80
2022-12-18T23:39:15.495Z,1.27
2022-12-18T23:41:57.314Z,1.30
2022-12-18T23:44:24.498Z,1.90
2022-12-18T23:46:51.696Z,1.95
2022-12-18T23:49:18.780Z,1.97
2022-12-18T23:51:45.843Z,1.48
2022-12-18T23:54:12.886Z,2.40
2022-12-18T23:56:39.928Z,2.00
2022-12-18T23:59:06.974Z,2.25
